Time;durP1;ratioP1;P1;durP2;ratioP2;P2;SDS_P1;SDS_P2;PMS_P1;PMS_P2;Temp;Humidity;BMP_temperature;BMP_pressure;BME280_temperature;BME280_humidity;BME280_pressure;Samples;Min_cycle;Max_cycle;Signal;HPM_P1;HPM_P2
2023/10/25 00:02:06;;;;;;;;;;;;;;;-140.72;100.00;60233.03;5069673;28;20334;-70
2023/10/25 00:04:32;;;;;;;;;;;;;;;-140.72;100.00;60253.38;5069440;28;19931;-70
2023/10/25 00:06:57;;;;;;;;;;;;;;;-140.72;100.00;60324.53;5070732;28;20291;-70
2023/10/25 00:09:22;;;;;;;;;;;;;;;-140.72;100.00;60377.38;5072032;28;19928;-69
2023/10/25 00:11:47;;;;;;;;;;;;;;;-140.72;100.00;60391.63;5070181;28;19921;-70
2023/10/25 00:14:12;;;;;;;;;;;;;;;-140.72;100.00;60424.16;5069238;28;19978;-69
2023/10/25 00:16:38;;;;;;;;;;;;;;;-140.72;100.00;60458.72;5070129;28;20351;-70
2023/10/25 00:19:03;;;;;;;;;;;;;;;-140.72;100.00;60491.25;5067732;28;20379;-69
2023/10/25 00:21:28;;;;;;;;;;;;;;;-140.72;100.00;60511.59;5070342;28;20505;-69
2023/10/25 00:23:53;;;;;;;;;;;;;;;-140.72;100.00;60540.03;5068034;28;19928;-70
2023/10/25 00:26:18;;;;;;;;;;;;;;;-140.72;100.00;60546.16;5070355;28;19921;-69
2023/10/25 00:28:44;;;;;;;;;;;;;;;-140.72;100.00;60590.88;5067377;28;19927;-69
2023/10/25 00:31:09;;;;;;;;;;;;;;;-140.72;100.00;60588.84;5066794;28;19921;-70
2023/10/25 00:33:34;;;;;;;;;;;;;;;-140.72;100.00;60570.53;5067578;28;19929;-69
2023/10/25 00:35:59;;;;;;;;;;;;;;;-140.72;100.00;60578.69;5069497;28;19920;-69
2023/10/25 00:38:25;;;;;;;;;;;;;;;-140.72;100.00;60629.50;5071457;28;20361;-70
2023/10/25 00:40:50;;;;;;;;;;;;;;;-140.72;100.00;60592.91;5088468;28;19971;-70
2023/10/25 00:43:22;;;;;;;;;;;;;;;-140.72;100.00;60666.13;5071159;28;19925;-70
2023/10/25 00:46:06;;;;;;;;;;;;;;;-140.72;100.00;60641.72;5068033;28;19930;-70
2023/10/25 00:48:33;;;;;;;;;;;;;;;-140.72;100.00;60718.97;5070215;28;21086;-69
2023/10/25 00:50:58;;;;;;;;;;;;;;;-140.72;100.00;60690.50;5068993;28;20019;-69
2023/10/25 00:53:24;;;;;;;;;;;;;;;-140.72;100.00;60660.00;5066966;28;20039;-70
2023/10/25 00:55:51;;;;;;;;;;;;;;;-140.72;100.00;60680.34;5069406;28;19928;-70
2023/10/25 00:58:16;;;;;;;;;;;;;;;-140.72;100.00;60714.91;5070003;28;19929;-69
2023/10/25 01:00:41;;;;;;;;;;;;;;;-140.72;100.00;60674.25;5069429;28;19920;-72
2023/10/25 01:03:07;;;;;;;;;;;;;;;-140.72;100.00;60660.00;5066712;28;20295;-70
2023/10/25 01:05:32;;;;;;;;;;;;;;;-140.72;100.00;60680.34;5070478;28;19932;-69
2023/10/25 01:07:58;;;;;;;;;;;;;;;-140.72;100.00;60714.91;5066340;28;20005;-69
2023/10/25 01:10:23;;;;;;;;;;;;;;;-140.72;100.00;60694.59;5069715;28;19921;-70
2023/10/25 01:12:48;;;;;;;;;;;;;;;-140.72;100.00;60686.44;5064644;28;20341;-70
2023/10/25 01:15:13;;;;;;;;;;;;;;;-140.72;100.00;60670.19;5067568;28;20107;-70
2023/10/25 01:17:39;;;;;;;;;;;;;;;-140.72;100.00;60649.84;5066659;28;19924;-70
2023/10/25 01:20:05;;;;;;;;;;;;;;;-140.72;100.00;60710.84;5070430;28;19920;-69
2023/10/25 01:22:30;;;;;;;;;;;;;;;-140.72;100.00;60716.94;5069246;28;19969;-70
2023/10/25 01:24:55;;;;;;;;;;;;;;;-140.72;100.00;60690.50;5070629;28;19992;-69
2023/10/25 01:27:21;;;;;;;;;;;;;;;-140.72;100.00;60668.16;5069436;28;19921;-70
2023/10/25 01:29:46;;;;;;;;;;;;;;;-140.72;100.00;60674.25;5069043;28;20002;-69
2023/10/25 01:32:11;;;;;;;;;;;;;;;-140.72;100.00;60718.97;5068014;28;19927;-69
2023/10/25 01:34:36;;;;;;;;;;;;;;;-140.72;100.00;60662.03;5069954;28;19943;-70
2023/10/25 01:37:02;;;;;;;;;;;;;;;-140.72;100.00;60662.03;5069397;28;20019;-70
2023/10/25 01:39:27;;;;;;;;;;;;;;;-140.72;100.00;60680.34;5070382;28;19967;-69
2023/10/25 01:41:52;;;;;;;;;;;;;;;-140.72;100.00;60672.22;5066683;28;19935;-70
2023/10/25 01:44:17;;;;;;;;;;;;;;;-140.72;100.00;60670.19;5066126;28;19932;-71
2023/10/25 01:46:42;;;;;;;;;;;;;;;-140.72;100.00;60710.84;5069780;28;20271;-70
2023/10/25 01:49:08;;;;;;;;;;;;;;;-140.72;100.00;60702.72;5070605;28;20398;-70
2023/10/25 01:51:33;;;;;;;;;;;;;;;-140.72;100.00;60702.72;5069396;28;19920;-70
2023/10/25 01:53:58;;;;;;;;;;;;;;;-140.72;100.00;60727.13;5068738;28;19920;-70
2023/10/25 01:56:23;;;;;;;;;;;;;;;-140.72;100.00;60729.16;5066043;28;19928;-70
2023/10/25 01:58:48;;;;;;;;;;;;;;;-140.72;100.00;60735.25;5068578;28;20019;-69
2023/10/25 02:01:14;;;;;;;;;;;;;;;-140.72;100.00;60729.16;5066816;28;19924;-70
2023/10/25 02:03:39;;;;;;;;;;;;;;;-140.72;100.00;60773.88;5067667;28;19924;-70
2023/10/25 02:06:11;;;;;;;;;;;;;;;-140.72;100.00;60755.59;5068108;28;19920;-69
2023/10/25 02:08:36;;;;;;;;;;;;;;;-140.72;100.00;60794.22;5064477;28;19994;-70
2023/10/25 02:11:01;;;;;;;;;;;;;;;-140.72;100.00;60775.91;5068856;28;19995;-69
2023/10/25 02:13:27;;;;;;;;;;;;;;;-140.72;100.00;60810.47;5066547;28;19928;-69
2023/10/25 02:15:52;;;;;;;;;;;;;;;-140.72;100.00;60820.66;5064353;28;20353;-70
2023/10/25 02:18:17;;;;;;;;;;;;;;;-140.72;100.00;60824.72;5064981;28;19968;-70
2023/10/25 02:20:42;;;;;;;;;;;;;;;-140.72;100.00;60877.59;5068121;28;19954;-70
2023/10/25 02:23:07;;;;;;;;;;;;;;;-140.72;100.00;60865.38;5066785;28;20343;-69
2023/10/25 02:25:33;;;;;;;;;;;;;;;-140.72;100.00;60840.97;5077829;28;19925;-70
2023/10/25 02:27:58;;;;;;;;;;;;;;;-140.72;100.00;60859.28;5073751;28;20421;-70
2023/10/25 02:30:24;;;;;;;;;;;;;;;-140.72;100.00;60879.63;5067427;28;20331;-71
2023/10/25 02:32:49;;;;;;;;;;;;;;;-140.72;100.00;60906.06;5065813;28;19921;-70
2023/10/25 02:35:15;;;;;;;;;;;;;;;-140.72;100.00;60897.91;5070028;28;19951;-69
2023/10/25 02:37:41;;;;;;;;;;;;;;;-140.72;100.00;60889.78;5072098;28;20015;-69
2023/10/25 02:40:06;;;;;;;;;;;;;;;-140.72;100.00;60904.03;5069263;28;20439;-69
2023/10/25 02:42:31;;;;;;;;;;;;;;;-140.72;100.00;60930.47;5069141;28;19920;-69
2023/10/25 02:44:57;;;;;;;;;;;;;;;-140.72;100.00;60944.69;5067861;28;19920;-69
2023/10/25 02:47:22;;;;;;;;;;;;;;;-140.72;100.00;60942.66;5069487;28;19955;-69
2023/10/25 02:49:48;;;;;;;;;;;;;;;-140.72;100.00;60930.47;5072472;28;20021;-69
2023/10/25 02:52:13;;;;;;;;;;;;;;;-140.72;100.00;60928.44;5069291;28;19921;-70
2023/10/25 02:54:38;;;;;;;;;;;;;;;-140.72;100.00;60954.84;5066394;28;19920;-70
2023/10/25 02:57:03;;;;;;;;;;;;;;;-140.72;100.00;60963.00;5070059;28;20401;-71
2023/10/25 02:59:28;;;;;;;;;;;;;;;-140.72;100.00;60975.19;5069472;28;19920;-70
2023/10/25 03:01:54;;;;;;;;;;;;;;;-140.72;100.00;60967.06;5073676;28;19978;-70
2023/10/25 03:04:19;;;;;;;;;;;;;;;-140.72;100.00;60981.28;5066634;28;19946;-70
2023/10/25 03:06:44;;;;;;;;;;;;;;;-140.72;100.00;60993.50;5066501;28;19920;-70
2023/10/25 03:09:09;;;;;;;;;;;;;;;-140.72;100.00;60997.56;5066615;28;19928;-70
2023/10/25 03:11:35;;;;;;;;;;;;;;;-140.72;100.00;61003.66;5072967;28;19920;-69
2023/10/25 03:14:00;;;;;;;;;;;;;;;-140.72;100.00;61026.03;5064562;28;19966;-71
2023/10/25 03:16:25;;;;;;;;;;;;;;;-140.72;100.00;61040.28;5070593;28;20019;-70
2023/10/25 03:18:50;;;;;;;;;;;;;;;-140.72;100.00;61042.31;5071508;28;20039;-70
2023/10/25 03:21:16;;;;;;;;;;;;;;;-140.72;100.00;61048.41;5067523;28;19974;-70
2023/10/25 03:23:41;;;;;;;;;;;;;;;-140.72;100.00;61015.88;5064896;28;20035;-70
2023/10/25 03:26:06;;;;;;;;;;;;;;;-140.72;100.00;61087.03;5070463;28;19924;-70
2023/10/25 03:28:32;;;;;;;;;;;;;;;-140.72;100.00;61064.66;5069744;28;19927;-70
2023/10/25 03:30:57;;;;;;;;;;;;;;;-140.72;100.00;61060.59;5071895;28;19922;-70
2023/10/25 03:33:23;;;;;;;;;;;;;;;-140.72;100.00;61085.00;5071509;28;19921;-70
2023/10/25 03:35:54;;;;;;;;;;;;;;;-140.72;100.00;61082.97;5066034;28;19969;-69
2023/10/25 03:38:20;;;;;;;;;;;;;;;-140.72;100.00;61080.94;5069282;28;19917;-70
2023/10/25 03:40:46;;;;;;;;;;;;;;;-140.72;100.00;61089.06;5072527;28;20124;-70
2023/10/25 03:43:11;;;;;;;;;;;;;;;-140.72;100.00;61101.28;5071089;28;19932;-70
2023/10/25 03:45:36;;;;;;;;;;;;;;;-140.72;100.00;61099.25;5069566;28;20379;-70
2023/10/25 03:48:01;;;;;;;;;;;;;;;-140.72;100.00;61137.88;5071050;28;19925;-70
2023/10/25 03:50:27;;;;;;;;;;;;;;;-140.72;100.00;61095.19;5066573;28;19925;-69
2023/10/25 03:52:52;;;;;;;;;;;;;;;-140.72;100.00;61133.81;5071650;28;19920;-69
2023/10/25 03:55:17;;;;;;;;;;;;;;;-140.72;100.00;61150.09;5072019;28;19928;-71
2023/10/25 03:57:42;;;;;;;;;;;;;;;-140.72;100.00;61121.59;5068924;28;19955;-71
2023/10/25 04:00:09;;;;;;;;;;;;;;;-140.72;100.00;61162.28;5068629;28;20389;-73
2023/10/25 04:02:34;;;;;;;;;;;;;;;-140.72;100.00;61158.22;5071564;28;19987;-70
2023/10/25 04:04:59;;;;;;;;;;;;;;;-140.72;100.00;61154.16;5071119;28;20021;-69
2023/10/25 04:07:24;;;;;;;;;;;;;;;-140.72;100.00;61148.03;5071282;28;19981;-69
2023/10/25 04:09:50;;;;;;;;;;;;;;;-140.72;100.00;61141.94;5076262;28;20345;-70
2023/10/25 04:12:15;;;;;;;;;;;;;;;-140.72;100.00;61170.41;5077216;28;19934;-70
2023/10/25 04:14:46;;;;;;;;;;;;;;;-140.72;100.00;61150.09;5074638;28;19928;-72
2023/10/25 04:17:12;;;;;;;;;;;;;;;-140.72;100.00;61166.34;5073422;28;20007;-70
2023/10/25 04:19:37;;;;;;;;;;;;;;;-140.72;100.00;61172.44;5077351;28;20011;-70
2023/10/25 04:22:03;;;;;;;;;;;;;;;-140.72;100.00;61184.66;5075194;28;19982;-70
2023/10/25 04:24:28;;;;;;;;;;;;;;;-140.72;100.00;61174.47;5070569;28;20290;-71
2023/10/25 04:26:53;;;;;;;;;;;;;;;-140.72;100.00;61170.41;5074938;28;19930;-69
2023/10/25 04:29:19;;;;;;;;;;;;;;;-140.72;100.00;61168.38;5071842;28;20383;-69
2023/10/25 04:31:44;;;;;;;;;;;;;;;-140.72;100.00;61190.75;5074198;28;20009;-73
2023/10/25 04:34:09;;;;;;;;;;;;;;;-140.72;100.00;61168.38;5069890;28;20002;-69
2023/10/25 04:36:34;;;;;;;;;;;;;;;-140.72;100.00;61141.94;5071945;28;20761;-69
2023/10/25 04:39:00;;;;;;;;;;;;;;;-140.72;100.00;61194.81;5077117;28;19924;-69
2023/10/25 04:41:25;;;;;;;;;;;;;;;-140.72;100.00;61205.00;5073640;28;19977;-70
2023/10/25 04:43:50;;;;;;;;;;;;;;;-140.72;100.00;61174.47;5069615;28;19992;-70
2023/10/25 04:46:15;;;;;;;;;;;;;;;-140.72;100.00;61202.94;5074845;28;19928;-69
2023/10/25 04:48:41;;;;;;;;;;;;;;;-140.72;100.00;61198.88;5072496;28;19920;-68
2023/10/25 04:51:07;;;;;;;;;;;;;;;-140.72;100.00;61211.09;5073702;28;20292;-68
2023/10/25 04:53:32;;;;;;;;;;;;;;;-140.72;100.00;61243.63;5071496;28;19921;-68
2023/10/25 04:55:58;;;;;;;;;;;;;;;-140.72;100.00;61223.28;5074084;28;19981;-70
2023/10/25 04:58:25;;;;;;;;;;;;;;;-140.72;100.00;61217.19;5070703;28;20408;-69
2023/10/25 05:00:51;;;;;;;;;;;;;;;-140.72;100.00;61198.88;5069558;28;19971;-69
2023/10/25 05:03:16;;;;;;;;;;;;;;;-140.72;100.00;61219.22;5075764;28;20310;-70
2023/10/25 05:05:41;;;;;;;;;;;;;;;-140.72;100.00;61217.19;5070429;28;19920;-69
2023/10/25 05:08:07;;;;;;;;;;;;;;;-140.72;100.00;61215.16;5065857;28;19920;-71
2023/10/25 05:10:32;;;;;;;;;;;;;;;-140.72;100.00;61255.81;5069425;28;20001;-71
2023/10/25 05:12:58;;;;;;;;;;;;;;;-140.72;100.00;61215.16;5070706;28;20323;-70
2023/10/25 05:15:25;;;;;;;;;;;;;;;-140.72;100.00;61239.56;5072661;28;19955;-69
2023/10/25 05:17:50;;;;;;;;;;;;;;;-140.72;100.00;61231.44;5070694;28;19916;-69
2023/10/25 05:20:15;;;;;;;;;;;;;;;-140.72;100.00;61196.84;5065189;28;19985;-69
2023/10/25 05:22:42;;;;;;;;;;;;;;;-140.72;100.00;61200.91;5069420;28;19924;-69
2023/10/25 05:25:08;;;;;;;;;;;;;;;-140.72;100.00;61229.41;5071285;28;20294;-69
2023/10/25 05:27:34;;;;;;;;;;;;;;;-140.72;100.00;61186.69;5069125;28;19920;-69
2023/10/25 05:30:03;;;;;;;;;;;;;;;-140.72;100.00;61198.88;5071642;28;19942;-69
2023/10/25 05:32:29;;;;;;;;;;;;;;;-140.72;100.00;61227.34;5067387;28;19932;-70
2023/10/25 05:34:56;;;;;;;;;;;;;;;-140.72;100.00;61231.44;5072872;28;20283;-69
2023/10/25 05:37:21;;;;;;;;;;;;;;;-140.72;100.00;61215.16;5073009;28;19928;-70
2023/10/25 05:39:46;;;;;;;;;;;;;;;-140.72;100.00;61247.69;5067202;28;19924;-70
2023/10/25 05:42:16;;;;;;;;;;;;;;;-140.72;100.00;61229.41;5069538;28;19981;-73
2023/10/25 05:44:41;;;;;;;;;;;;;;;-140.72;100.00;61202.94;5073262;28;19920;-71
2023/10/25 05:47:07;;;;;;;;;;;;;;;-140.72;100.00;61213.13;5069293;28;19928;-70
2023/10/25 05:49:32;;;;;;;;;;;;;;;-140.72;100.00;61196.84;5072212;28;20437;-70
2023/10/25 05:51:57;;;;;;;;;;;;;;;-140.72;100.00;61247.69;5069731;28;19939;-73
2023/10/25 05:54:23;;;;;;;;;;;;;;;-140.72;100.00;61211.09;5072532;28;20371;-73
2023/10/25 05:56:48;;;;;;;;;;;;;;;-140.72;100.00;61223.28;5072584;28;19920;-73
2023/10/25 05:59:13;;;;;;;;;;;;;;;-140.72;100.00;61211.09;5077884;28;19923;-73
2023/10/25 06:01:47;;;;;;;;;;;;;;;-140.72;100.00;61231.44;5073483;28;20268;-71
2023/10/25 06:04:13;;;;;;;;;;;;;;;-140.72;100.00;61215.16;5075191;28;19934;-77
2023/10/25 06:06:40;;;;;;;;;;;;;;;-140.72;100.00;61190.75;5073964;28;20011;-75
2023/10/25 06:09:06;;;;;;;;;;;;;;;-140.72;100.00;61225.31;5066815;28;19954;-70
2023/10/25 06:11:31;;;;;;;;;;;;;;;-140.72;100.00;61231.44;5070253;28;19920;-70
2023/10/25 06:13:57;;;;;;;;;;;;;;;-140.72;100.00;61251.75;5067345;28;19916;-70
2023/10/25 06:16:22;;;;;;;;;;;;;;;-140.72;100.00;61213.13;5079060;28;20385;-71
2023/10/25 06:18:47;;;;;;;;;;;;;;;-140.72;100.00;61215.16;5067110;28;20029;-71
2023/10/25 06:21:12;;;;;;;;;;;;;;;-140.72;100.00;61211.09;5071097;28;20390;-71
2023/10/25 06:23:37;;;;;;;;;;;;;;;-140.72;100.00;61213.13;5069880;28;20317;-73
2023/10/25 06:26:03;;;;;;;;;;;;;;;-140.72;100.00;61239.56;5058507;28;20347;-70
2023/10/25 06:28:29;;;;;;;;;;;;;;;-140.72;100.00;61215.16;5070551;28;19916;-70
2023/10/25 06:30:54;;;;;;;;;;;;;;;-140.72;100.00;61237.53;5081540;28;19932;-70
2023/10/25 06:33:19;;;;;;;;;;;;;;;-140.72;100.00;61257.88;5077139;28;19917;-70
2023/10/25 06:35:45;;;;;;;;;;;;;;;-140.72;100.00;61213.13;5073229;28;19932;-71
2023/10/25 06:38:10;;;;;;;;;;;;;;;-140.72;100.00;61249.72;5080261;28;19916;-70
2023/10/25 06:40:35;;;;;;;;;;;;;;;-140.72;100.00;61247.69;5071426;28;20333;-71
2023/10/25 06:43:01;;;;;;;;;;;;;;;-140.72;100.00;61235.50;5071809;28;19916;-71
2023/10/25 06:45:27;;;;;;;;;;;;;;;-140.72;100.00;61233.47;5071522;28;19920;-71
2023/10/25 06:47:52;;;;;;;;;;;;;;;-140.72;100.00;61239.56;5063675;28;19968;-72
2023/10/25 06:50:18;;;;;;;;;;;;;;;-140.72;100.00;61266.00;5065645;28;19924;-71
2023/10/25 06:52:43;;;;;;;;;;;;;;;-140.72;100.00;61239.56;5071551;28;20078;-72
2023/10/25 06:55:09;;;;;;;;;;;;;;;-140.72;100.00;61268.03;5068875;28;19921;-71
2023/10/25 06:57:35;;;;;;;;;;;;;;;-140.72;100.00;61235.50;5072053;28;19916;-71
2023/10/25 07:00:02;;;;;;;;;;;;;;;-140.72;100.00;61239.56;5070751;28;19917;-71
2023/10/25 07:02:48;;;;;;;;;;;;;;;-140.72;100.00;61239.56;5072178;28;19962;-71
2023/10/25 07:05:14;;;;;;;;;;;;;;;-140.72;100.00;61255.81;5070947;28;19920;-71
2023/10/25 07:07:40;;;;;;;;;;;;;;;-140.72;100.00;61255.81;5062399;28;19939;-71
2023/10/25 07:10:06;;;;;;;;;;;;;;;-140.72;100.00;61247.69;5070509;28;19916;-71
2023/10/25 07:12:32;;;;;;;;;;;;;;;-140.72;100.00;61235.50;5071079;28;20358;-71
2023/10/25 07:14:57;;;;;;;;;;;;;;;-140.72;100.00;61243.63;5073130;28;19923;-71
2023/10/25 07:17:24;;;;;;;;;;;;;;;-140.72;100.00;61198.88;5070383;28;20370;-70
2023/10/25 07:19:49;;;;;;;;;;;;;;;-140.72;100.00;61235.50;5070084;28;19924;-70
2023/10/25 07:22:14;;;;;;;;;;;;;;;-140.72;100.00;61184.66;5070461;28;19984;-70
2023/10/25 07:24:40;;;;;;;;;;;;;;;-140.72;100.00;61225.31;5072619;28;20303;-70
2023/10/25 07:27:05;;;;;;;;;;;;;;;-140.72;100.00;61217.19;5071927;28;20358;-71
2023/10/25 07:29:31;;;;;;;;;;;;;;;-140.72;100.00;61184.66;5071726;28;19929;-70
2023/10/25 07:31:56;;;;;;;;;;;;;;;-140.72;100.00;61139.91;5071048;28;19924;-71
2023/10/25 07:34:21;;;;;;;;;;;;;;;-140.72;100.00;61162.28;5068044;28;19916;-70
2023/10/25 07:36:46;;;;;;;;;;;;;;;-140.72;100.00;61158.22;5070587;28;19923;-70
2023/10/25 07:39:15;;;;;;;;;;;;;;;-140.72;100.00;61180.59;5071306;28;20379;-70
2023/10/25 07:41:40;;;;;;;;;;;;;;;-140.72;100.00;61117.53;5072114;28;20325;-70
2023/10/25 07:44:05;;;;;;;;;;;;;;;-140.72;100.00;61143.97;5084777;28;19946;-70
2023/10/25 07:46:30;;;;;;;;;;;;;;;-140.72;100.00;61080.94;5081357;28;19920;-71
2023/10/25 07:48:55;;;;;;;;;;;;;;;-140.72;100.00;61099.25;5076679;28;19924;-70
2023/10/25 07:51:21;;;;;;;;;;;;;;;-140.72;100.00;61085.00;5075677;28;19966;-70
2023/10/25 07:53:46;;;;;;;;;;;;;;;-140.72;100.00;61085.00;5074507;28;19933;-71
2023/10/25 07:56:11;;;;;;;;;;;;;;;-140.72;100.00;61064.66;5080267;28;19923;-70
2023/10/25 07:58:36;;;;;;;;;;;;;;;-140.72;100.00;61078.91;5079084;28;19916;-71
2023/10/25 08:01:02;;;;;;;;;;;;;;;-140.72;100.00;61042.31;5074832;28;20066;-73
2023/10/25 08:03:28;;;;;;;;;;;;;;;-140.72;100.00;60997.56;5073643;28;19920;-70
2023/10/25 08:05:54;;;;;;;;;;;;;;;-140.72;100.00;61007.72;5070331;28;19928;-70
2023/10/25 08:08:19;;;;;;;;;;;;;;;-140.72;100.00;60995.53;5073861;28;19920;-71
2023/10/25 08:10:44;;;;;;;;;;;;;;;-140.72;100.00;60926.38;5073394;28;19920;-72
2023/10/25 08:13:10;;;;;;;;;;;;;;;-140.72;100.00;60902.00;5066334;28;19921;-70
2023/10/25 08:15:36;;;;;;;;;;;;;;;-140.72;100.00;60881.66;5085793;28;20256;-70
2023/10/25 08:18:02;;;;;;;;;;;;;;;-140.72;100.00;60867.41;5074214;28;19919;-70
2023/10/25 08:20:27;;;;;;;;;;;;;;;-140.72;100.00;60879.63;5074742;28;20336;-70
2023/10/25 08:22:52;;;;;;;;;;;;;;;-140.72;100.00;60914.19;5071882;28;19966;-71
2023/10/25 08:25:18;;;;;;;;;;;;;;;-140.72;100.00;60840.97;5074469;28;19969;-70
2023/10/25 08:27:43;;;;;;;;;;;;;;;-140.72;100.00;60853.19;5073448;28;19920;-70
2023/10/25 08:30:08;;;;;;;;;;;;;;;-140.72;100.00;60820.66;5073610;28;19978;-70
2023/10/25 08:32:33;;;;;;;;;;;;;;;-140.72;100.00;60737.28;5073468;28;19985;-70
2023/10/25 08:34:59;;;;;;;;;;;;;;;-140.72;100.00;60759.66;5074560;28;19974;-70
2023/10/25 08:37:24;;;;;;;;;;;;;;;-140.72;100.00;60798.28;5074650;28;19921;-70
2023/10/25 08:39:49;;;;;;;;;;;;;;;-140.72;100.00;60747.44;5074505;28;19917;-70
2023/10/25 08:42:14;;;;;;;;;;;;;;;-140.72;100.00;60735.25;5073452;28;20015;-70
2023/10/25 08:44:42;;;;;;;;;;;;;;;-140.72;100.00;60727.13;5074037;28;20002;-70
2023/10/25 08:47:11;;;;;;;;;;;;;;;-140.72;100.00;60696.63;5073587;28;19920;-70
2023/10/25 08:49:37;;;;;;;;;;;;;;;-140.72;100.00;60672.22;5072472;28;19925;-70
2023/10/25 08:52:03;;;;;;;;;;;;;;;-140.72;100.00;60702.72;5079366;28;19924;-69
2023/10/25 08:54:31;;;;;;;;;;;;;;;-140.72;100.00;60692.53;5072872;28;19916;-70
2023/10/25 08:56:56;;;;;;;;;;;;;;;-140.72;100.00;60645.78;5073466;28;19928;-70
2023/10/25 08:59:21;;;;;;;;;;;;;;;-140.72;100.00;60660.00;5069981;28;20315;-70
2023/10/25 09:01:47;;;;;;;;;;;;;;;-140.72;100.00;60647.81;5072438;28;19920;-70
2023/10/25 09:04:13;;;;;;;;;;;;;;;-140.72;100.00;60653.91;5071968;28;19927;-70
2023/10/25 09:06:38;;;;;;;;;;;;;;;-140.72;100.00;60613.25;5074090;28;20269;-70
2023/10/25 09:09:06;;;;;;;;;;;;;;;-140.72;100.00;60609.19;5074248;28;19963;-70
2023/10/25 09:11:42;;;;;;;;;;;;;;;-140.72;100.00;60649.84;5072634;28;20295;-70
2023/10/25 09:14:09;;;;;;;;;;;;;;;-140.72;100.00;60625.44;5073769;28;20292;-70
2023/10/25 09:16:35;;;;;;;;;;;;;;;-140.72;100.00;60645.78;5072997;28;20294;-70
2023/10/25 09:19:03;;;;;;;;;;;;;;;-140.72;100.00;60635.63;5073057;28;19916;-70
2023/10/25 09:21:29;;;;;;;;;;;;;;;-140.72;100.00;60631.53;5072571;28;19973;-70
2023/10/25 09:23:55;;;;;;;;;;;;;;;-140.72;100.00;60596.97;5073828;28;19924;-70
2023/10/25 09:26:22;;;;;;;;;;;;;;;-140.72;100.00;60588.84;5073469;28;19916;-70
2023/10/25 09:28:51;;;;;;;;;;;;;;;-140.72;100.00;60621.38;5075262;28;19990;-70
2023/10/25 09:31:21;;;;;;;;;;;;;;;-140.72;100.00;60611.22;5084360;28;20015;-70
2023/10/25 09:33:47;;;;;;;;;;;;;;;-140.72;100.00;60613.25;5073341;28;19916;-71
2023/10/25 09:36:13;;;;;;;;;;;;;;;-140.72;100.00;60649.84;5073084;28;19935;-70
2023/10/25 09:38:38;;;;;;;;;;;;;;;-140.72;100.00;60617.31;5072815;28;19928;-70
2023/10/25 09:41:04;;;;;;;;;;;;;;;-140.72;100.00;60641.72;5072861;28;19916;-70
2023/10/25 09:43:31;;;;;;;;;;;;;;;-140.72;100.00;60653.91;5073191;28;19917;-70
2023/10/25 09:45:57;;;;;;;;;;;;;;;-140.72;100.00;60674.25;5073259;28;19916;-70
2023/10/25 09:48:22;;;;;;;;;;;;;;;-140.72;100.00;60684.41;5070528;28;19928;-70
2023/10/25 09:50:58;;;;;;;;;;;;;;;-140.72;100.00;60696.63;5072218;28;19920;-70
2023/10/25 09:53:26;;;;;;;;;;;;;;;-140.72;100.00;60666.13;5072279;28;19916;-70
2023/10/25 09:55:55;;;;;;;;;;;;;;;-140.72;100.00;60723.03;5071803;28;19917;-70
2023/10/25 09:58:22;;;;;;;;;;;;;;;-140.72;100.00;60664.09;5072715;28;20299;-70
2023/10/25 10:00:47;;;;;;;;;;;;;;;-140.72;100.00;60698.66;5072850;28;19917;-70
2023/10/25 10:03:36;;;;;;;;;;;;;;;-140.72;100.00;60674.25;5072756;28;19939;-70
2023/10/25 10:06:14;;;;;;;;;;;;;;;-140.72;100.00;60706.78;5061505;28;20339;-70
2023/10/25 10:08:43;;;;;;;;;;;;;;;-140.72;100.00;60680.34;5072030;28;19942;-70
2023/10/25 10:11:14;;;;;;;;;;;;;;;-140.72;100.00;60690.50;5071714;28;20263;-70
2023/10/25 10:13:40;;;;;;;;;;;;;;;-140.72;100.00;60682.38;5071839;28;19917;-70
2023/10/25 10:16:09;;;;;;;;;;;;;;;-140.72;100.00;60696.63;5071461;28;19921;-70
2023/10/25 10:18:35;;;;;;;;;;;;;;;-140.72;100.00;60700.69;5063194;28;19928;-70
2023/10/25 10:21:01;;;;;;;;;;;;;;;-140.72;100.00;60676.28;5071797;28;19923;-70
2023/10/25 10:23:53;;;;;;;;;;;;;;;-140.72;100.00;60641.72;5070316;28;19920;-70
2023/10/25 10:26:37;;;;;;;;;;;;;;;-140.72;100.00;60651.88;5065958;28;19928;-70
2023/10/25 10:29:02;;;;;;;;;;;;;;;-140.72;100.00;60678.31;5071440;28;19987;-70
2023/10/25 10:31:27;;;;;;;;;;;;;;;-140.72;100.00;60603.09;5071609;28;19927;-70
2023/10/25 10:33:52;;;;;;;;;;;;;;;-140.72;100.00;60639.69;5072231;28;19917;-70
2023/10/25 10:36:25;;;;;;;;;;;;;;;-140.72;100.00;60601.03;5069552;28;19921;-70
2023/10/25 10:39:09;;;;;;;;;;;;;;;-140.72;100.00;60558.34;5071753;28;19917;-71
2023/10/25 10:41:34;;;;;;;;;;;;;;;-140.72;100.00;60615.28;5070742;28;19964;-70
2023/10/25 10:43:59;;;;;;;;;;;;;;;-140.72;100.00;60615.28;5071046;28;20271;-70
2023/10/25 10:46:29;;;;;;;;;;;;;;;-140.72;100.00;60609.19;5065556;28;20339;-70
2023/10/25 10:48:55;;;;;;;;;;;;;;;-140.72;100.00;60538.00;5071635;28;19939;-70
2023/10/25 10:51:20;;;;;;;;;;;;;;;-140.72;100.00;60493.28;5075747;28;19924;-71
2023/10/25 10:53:46;;;;;;;;;;;;;;;-140.72;100.00;60535.97;5074523;28;19927;-71
2023/10/25 10:56:11;;;;;;;;;;;;;;;-140.72;100.00;60511.59;5072799;28;19916;-70
2023/10/25 10:58:36;;;;;;;;;;;;;;;-140.72;100.00;60517.69;5075458;28;19921;-70
2023/10/25 11:01:02;;;;;;;;;;;;;;;-140.72;100.00;60487.19;5069821;28;20235;-71
2023/10/25 11:03:27;;;;;;;;;;;;;;;-140.72;100.00;60517.69;5072089;28;19916;-71
2023/10/25 11:05:53;;;;;;;;;;;;;;;-140.72;100.00;60460.75;5072064;28;19978;-71
2023/10/25 11:08:21;;;;;;;;;;;;;;;-140.72;100.00;60493.28;5069646;28;20361;-72
2023/10/25 11:10:46;;;;;;;;;;;;;;;-140.72;100.00;60442.44;5079184;28;20271;-72
2023/10/25 11:13:11;;;;;;;;;;;;;;;-140.72;100.00;60413.97;5080642;28;19924;-72
2023/10/25 11:15:38;;;;;;;;;;;;;;;-140.72;100.00;60481.09;5075783;28;19982;-72
2023/10/25 11:18:09;;;;;;;;;;;;;;;-140.72;100.00;60405.84;5081660;28;19916;-72
2023/10/25 11:20:34;;;;;;;;;;;;;;;-140.72;100.00;60413.97;5087931;28;19923;-72
2023/10/25 11:23:02;;;;;;;;;;;;;;;-140.72;100.00;60353.00;5082847;28;19920;-71
2023/10/25 11:25:29;;;;;;;;;;;;;;;-140.72;100.00;60350.97;5081267;28;19917;-72
2023/10/25 11:27:55;;;;;;;;;;;;;;;-140.72;100.00;60318.44;5081323;28;19986;-71
2023/10/25 11:30:21;;;;;;;;;;;;;;;-140.72;100.00;60214.72;5085710;28;19924;-69
2023/10/25 11:32:47;;;;;;;;;;;;;;;-140.72;100.00;60194.41;5088918;28;20278;-70
2023/10/25 11:35:27;;;;;;;;;;;;;;;-140.72;100.00;60190.34;5080774;28;20007;-70
2023/10/25 11:37:53;;;;;;;;;;;;;;;-140.72;100.00;60141.53;5073492;28;20373;-74
2023/10/25 11:40:18;;;;;;;;;;;;;;;-140.72;100.00;60119.19;5076173;28;19966;-71
2023/10/25 11:42:44;;;;;;;;;;;;;;;-140.72;100.00;60064.28;5076758;28;20013;-70
2023/10/25 11:45:10;;;;;;;;;;;;;;;-140.72;100.00;60027.69;5078032;28;19924;-73
2023/10/25 11:47:37;;;;;;;;;;;;;;;-140.72;100.00;60015.50;5078534;28;19963;-70
2023/10/25 11:50:05;;;;;;;;;;;;;;;-140.72;100.00;59926.03;5077482;28;20011;-71
2023/10/25 11:52:31;;;;;;;;;;;;;;;-140.72;100.00;59875.22;5074911;28;19924;-72
2023/10/25 11:54:57;;;;;;;;;;;;;;;-140.72;100.00;59860.97;5073976;28;20263;-73
2023/10/25 11:57:23;;;;;;;;;;;;;;;-140.72;100.00;59810.16;5075186;28;19921;-71
2023/10/25 11:59:49;;;;;;;;;;;;;;;-140.72;100.00;59832.53;5066078;28;20238;-71
2023/10/25 12:02:14;;;;;;;;;;;;;;;-140.72;100.00;59836.59;5075969;28;19920;-71
2023/10/25 12:04:39;;;;;;;;;;;;;;;-140.72;100.00;59822.34;5069248;28;20339;-71
2023/10/25 12:07:04;;;;;;;;;;;;;;;-140.72;100.00;59820.31;5071057;28;19956;-72
2023/10/25 12:09:30;;;;;;;;;;;;;;;-140.72;100.00;59806.09;5074128;28;19930;-71
2023/10/25 12:11:55;;;;;;;;;;;;;;;-140.72;100.00;59869.13;5076048;28;19978;-71
2023/10/25 12:14:20;;;;;;;;;;;;;;;-140.72;100.00;59885.38;5077182;28;19921;-71